createdAt,value
2018-05-11T00:01:18.146Z,93135.02
2018-05-11T00:03:44.680Z,93131.03
2018-05-11T00:06:11.005Z,93132.94
2018-05-11T00:08:37.361Z,93140.23
2018-05-11T00:11:03.632Z,93143.25
2018-05-11T00:13:30.115Z,93142.36
2018-05-11T00:15:56.640Z,93140.53
2018-05-11T00:18:23.285Z,93140.38
2018-05-11T00:20:49.785Z,93147.50
2018-05-11T00:23:16.357Z,93147.64
2018-05-11T00:25:42.728Z,93149.88
2018-05-11T00:28:09.214Z,93151.25
2018-05-11T00:30:35.759Z,93149.36
2018-05-11T00:33:02.145Z,93146.75
2018-05-11T00:35:28.552Z,93150.59
2018-05-11T00:37:55.060Z,93147.20
2018-05-11T00:40:21.597Z,93148.16
2018-05-11T00:42:48.135Z,93150.29
2018-05-11T00:45:14.421Z,93153.56
2018-05-11T00:47:40.745Z,93152.55
2018-05-11T00:50:07.138Z,93151.11
2018-05-11T00:52:33.568Z,93159.30
2018-05-11T00:55:12.388Z,93153.67
2018-05-11T00:57:38.770Z,93148.39
2018-05-11T01:00:05.177Z,93149.23
2018-05-11T01:02:31.535Z,93151.88
2018-05-11T01:04:57.869Z,93153.56
2018-05-11T01:07:24.555Z,93159.38
2018-05-11T01:09:50.984Z,93153.27
2018-05-11T01:12:17.424Z,93157.92
2018-05-11T01:14:43.749Z,93155.80
2018-05-11T01:17:10.488Z,93156.46
2018-05-11T01:19:37.033Z,93159.70
2018-05-11T01:22:03.350Z,93161.08
2018-05-11T01:24:29.693Z,93163.20
2018-05-11T01:26:56.234Z,93168.30
2018-05-11T01:29:22.768Z,93163.48
2018-05-11T01:31:49.413Z,93160.36
2018-05-11T01:34:15.844Z,93161.70
2018-05-11T01:36:42.379Z,93159.77
2018-05-11T01:39:23.759Z,93164.68
2018-05-11T01:41:50.133Z,93163.09
2018-05-11T01:44:16.598Z,93164.13
2018-05-11T01:46:43.124Z,93167.88
2018-05-11T01:49:09.701Z,93167.40
2018-05-11T01:51:36.042Z,93171.01
2018-05-11T01:54:02.401Z,93168.03
2018-05-11T01:56:28.739Z,93173.91
2018-05-11T01:58:55.224Z,93168.59
2018-05-11T02:01:21.583Z,93159.69
2018-05-11T02:03:48.004Z,93164.37
2018-05-11T02:06:14.371Z,93160.39
2018-05-11T02:08:40.745Z,93158.64
2018-05-11T02:11:07.078Z,93162.72
2018-05-11T02:13:33.454Z,93163.84
2018-05-11T02:15:59.809Z,93164.71
2018-05-11T02:18:26.292Z,93170.47
2018-05-11T02:20:52.652Z,93172.27
2018-05-11T02:23:19.010Z,93173.80
2018-05-11T02:25:45.489Z,93176.36
2018-05-11T02:28:12.022Z,93173.65
2018-05-11T02:30:38.413Z,93174.98
2018-05-11T02:33:04.804Z,93173.17
2018-05-11T02:35:31.124Z,93175.78
2018-05-11T02:37:58.681Z,93178.19
2018-05-11T02:40:25.218Z,93179.61
2018-05-11T02:42:51.533Z,93179.19
2018-05-11T02:45:17.943Z,93182.99
2018-05-11T02:47:44.365Z,93187.92
2018-05-11T02:50:10.966Z,93190.48
2018-05-11T02:52:37.489Z,93189.47
2018-05-11T02:55:04.026Z,93191.97
2018-05-11T02:57:30.408Z,93192.66
2018-05-11T02:59:56.896Z,93197.31
2018-05-11T03:02:23.228Z,93197.02
2018-05-11T03:04:49.573Z,93198.62
2018-05-11T03:07:17.109Z,93199.14
2018-05-11T03:09:43.561Z,93207.12
2018-05-11T03:12:09.875Z,93207.06
2018-05-11T03:14:36.247Z,93204.74
2018-05-11T03:17:02.749Z,93204.56
2018-05-11T03:19:30.926Z,93213.53
2018-05-11T03:21:58.310Z,93214.31
2018-05-11T03:24:25.092Z,93214.64
2018-05-11T03:26:51.763Z,93212.06
2018-05-11T03:29:18.298Z,93211.65
2018-05-11T03:31:44.649Z,93224.13
2018-05-11T03:34:11.141Z,93230.23
2018-05-11T03:36:37.601Z,93228.99
2018-05-11T03:39:04.152Z,93226.70
2018-05-11T03:41:30.511Z,93227.53
2018-05-11T03:43:57.210Z,93224.05
2018-05-11T03:46:23.531Z,93223.95
2018-05-11T03:48:50.099Z,93231.98
2018-05-11T03:51:16.675Z,93231.21
2018-05-11T03:53:42.985Z,93236.23
2018-05-11T03:56:09.375Z,93238.96
2018-05-11T03:58:36.124Z,93235.58
2018-05-11T04:01:02.654Z,93247.09
2018-05-11T04:06:38.327Z,93253.93
2018-05-11T04:09:04.826Z,93254.16
2018-05-11T04:11:31.164Z,93252.38
2018-05-11T04:13:57.599Z,93256.58
2018-05-11T04:16:24.258Z,93260.61
2018-05-11T04:18:52.961Z,93268.58
2018-05-11T04:21:19.297Z,93276.27
2018-05-11T04:23:45.783Z,93271.30
2018-05-11T04:26:12.149Z,93269.95
2018-05-11T04:28:39.605Z,93273.23
2018-05-11T04:31:06.250Z,93279.84
2018-05-11T04:33:32.669Z,93278.42
2018-05-11T04:35:59.074Z,93280.89
2018-05-11T04:38:25.703Z,93283.70
2018-05-11T04:40:52.076Z,93280.61
2018-05-11T04:43:18.732Z,93281.77
2018-05-11T04:45:45.090Z,93285.45
2018-05-11T04:48:12.180Z,93283.67
2018-05-11T04:50:38.745Z,93287.11
2018-05-11T04:53:05.381Z,93287.59
2018-05-11T04:55:32.215Z,93290.48
2018-05-11T04:57:58.964Z,93297.16
2018-05-11T05:00:25.482Z,93297.33
2018-05-11T05:02:52.140Z,93295.53
2018-05-11T05:05:18.771Z,93286.61
2018-05-11T05:07:45.615Z,93292.00
2018-05-11T05:10:12.157Z,93291.70
2018-05-11T05:12:38.602Z,93293.52
2018-05-11T05:15:04.992Z,93291.83
2018-05-11T05:17:31.453Z,93294.57
2018-05-11T05:19:57.893Z,93295.81
2018-05-11T05:22:24.534Z,93302.95
2018-05-11T05:24:50.923Z,93301.09
2018-05-11T05:27:17.495Z,93307.86
2018-05-11T05:29:44.347Z,93309.43
2018-05-11T05:32:10.697Z,93319.19
2018-05-11T05:34:37.010Z,93308.67
2018-05-11T05:37:03.650Z,93310.10
2018-05-11T05:39:30.019Z,93309.69
2018-05-11T05:41:56.451Z,93309.61
2018-05-11T05:44:23.689Z,93314.14
2018-05-11T05:46:51.118Z,93310.16
2018-05-11T05:49:17.617Z,93311.63
2018-05-11T05:51:44.153Z,93311.22
2018-05-11T05:54:11.610Z,93319.48
2018-05-11T05:56:38.079Z,93313.23
2018-05-11T05:59:04.624Z,93319.69
2018-05-11T06:01:31.265Z,93322.14
2018-05-11T06:03:58.007Z,93319.09
2018-05-11T06:06:24.954Z,93324.07
2018-05-11T06:08:51.489Z,93320.41
2018-05-11T06:11:17.930Z,93321.53
2018-05-11T06:13:44.309Z,93321.02
2018-05-11T06:16:10.688Z,93315.61
2018-05-11T06:18:37.280Z,93309.91
2018-05-11T06:21:03.701Z,93311.30
2018-05-11T06:23:30.073Z,93312.23
2018-05-11T06:25:56.623Z,93316.81
2018-05-11T06:28:26.430Z,93323.13
2018-05-11T06:30:53.078Z,93315.27
2018-05-11T06:33:19.421Z,93319.39
2018-05-11T06:35:45.818Z,93321.16
2018-05-11T06:38:12.249Z,93326.52
2018-05-11T06:40:39.169Z,93329.92
2018-05-11T06:43:05.513Z,93328.48
2018-05-11T06:45:31.873Z,93327.55
2018-05-11T06:47:58.274Z,93323.48
2018-05-11T06:50:24.619Z,93324.91
2018-05-11T06:52:51.291Z,93327.62
2018-05-11T06:55:17.629Z,93336.70
2018-05-11T06:57:47.726Z,93332.27
2018-05-11T07:00:14.134Z,93327.80
2018-05-11T07:02:40.463Z,93331.22
2018-05-11T07:05:07.145Z,93330.46
2018-05-11T07:07:37.210Z,93337.38
2018-05-11T07:10:03.894Z,93344.65
2018-05-11T07:12:30.297Z,93346.46
2018-05-11T07:14:56.624Z,93341.52
2018-05-11T07:17:22.981Z,93346.20
2018-05-11T07:19:49.342Z,93352.30
2018-05-11T07:22:15.762Z,93353.94
2018-05-11T07:24:42.094Z,93352.57
2018-05-11T07:27:09.753Z,93356.71
2018-05-11T07:29:36.188Z,93365.03
2018-05-11T07:32:02.522Z,93360.56
2018-05-11T07:34:29.019Z,93365.62
2018-05-11T07:36:57.642Z,93370.35
2018-05-11T07:39:24.285Z,93368.09
2018-05-11T07:41:50.840Z,93371.02
2018-05-11T07:44:17.245Z,93371.58
2018-05-11T07:46:44.258Z,93373.27
2018-05-11T07:49:10.824Z,93375.11
2018-05-11T07:51:37.518Z,93382.63
2018-05-11T07:54:03.957Z,93394.48
2018-05-11T07:56:30.644Z,93393.83
2018-05-11T07:59:08.317Z,93387.97
2018-05-11T08:01:34.791Z,93383.06
2018-05-11T08:04:01.211Z,93381.30
2018-05-11T08:06:27.543Z,93381.10
2018-05-11T08:08:55.038Z,93378.25
2018-05-11T08:11:21.641Z,93376.00
2018-05-11T08:13:47.985Z,93384.05
2018-05-11T08:16:14.502Z,93383.16
2018-05-11T08:18:45.176Z,93375.61
2018-05-11T08:21:11.571Z,93376.84
2018-05-11T08:23:38.121Z,93367.69
2018-05-11T08:26:04.472Z,93371.77
2018-05-11T08:28:38.037Z,93374.03
2018-05-11T08:31:04.513Z,93376.28
2018-05-11T08:33:30.926Z,93378.13
2018-05-11T08:35:57.407Z,93377.09
2018-05-11T08:38:24.769Z,93386.33
2018-05-11T08:40:52.161Z,93378.84
2018-05-11T08:43:18.699Z,93381.28
2018-05-11T08:45:45.005Z,93378.61
2018-05-11T08:48:11.522Z,93381.66
2018-05-11T08:50:37.990Z,93372.80
2018-05-11T08:53:04.339Z,93381.91
2018-05-11T08:55:30.796Z,93386.53
2018-05-11T08:58:00.610Z,93390.77
2018-05-11T09:00:27.139Z,93386.83
2018-05-11T09:02:53.516Z,93380.69
2018-05-11T09:05:19.924Z,93388.29
2018-05-11T09:07:47.330Z,93385.95
2018-05-11T09:10:13.698Z,93381.90
2018-05-11T09:12:40.239Z,93385.91
2018-05-11T09:15:06.730Z,93389.77
2018-05-11T09:17:33.380Z,93395.26
2018-05-11T09:20:00.016Z,93399.98
2018-05-11T09:22:26.657Z,93399.08
2018-05-11T09:24:53.070Z,93392.53
2018-05-11T09:27:19.611Z,93397.05
2018-05-11T09:29:46.051Z,93405.14
2018-05-11T09:32:12.922Z,93400.38
2018-05-11T09:34:39.333Z,93399.33
2018-05-11T09:37:05.847Z,93410.73
2018-05-11T09:39:32.429Z,93404.80
2018-05-11T09:41:58.832Z,93405.06
2018-05-11T09:44:25.263Z,93402.41
2018-05-11T09:46:51.587Z,93398.61
2018-05-11T09:49:17.992Z,93403.94
2018-05-11T09:51:44.452Z,93394.39
2018-05-11T09:54:10.940Z,93403.13
2018-05-11T09:56:37.375Z,93401.22
2018-05-11T09:59:03.893Z,93406.14
2018-05-11T10:01:30.281Z,93412.29
2018-05-11T10:03:56.700Z,93414.50
2018-05-11T10:06:23.083Z,93415.92
2018-05-11T10:08:49.486Z,93412.12
2018-05-11T10:11:15.900Z,93412.23
2018-05-11T10:13:42.274Z,93414.28
2018-05-11T10:16:08.765Z,93405.80
2018-05-11T10:18:35.298Z,93405.60
2018-05-11T10:21:01.772Z,93406.23
2018-05-11T10:23:28.364Z,93402.91
2018-05-11T10:25:55.029Z,93403.56
2018-05-11T10:28:21.606Z,93405.25
2018-05-11T10:30:48.217Z,93402.44
2018-05-11T10:33:14.694Z,93407.25
2018-05-11T10:35:41.134Z,93397.06
2018-05-11T10:38:07.568Z,93396.83
2018-05-11T10:40:34.057Z,93400.47
2018-05-11T10:43:00.468Z,93403.75
2018-05-11T10:45:33.813Z,93396.35
2018-05-11T10:48:00.305Z,93399.87
2018-05-11T10:50:26.665Z,93394.38
2018-05-11T10:52:53.058Z,93393.88
2018-05-11T10:55:19.416Z,93397.68
2018-05-11T10:57:45.987Z,93401.48
2018-05-11T11:00:12.429Z,93399.47
2018-05-11T11:02:38.848Z,93392.00
2018-05-11T11:05:05.257Z,93393.66
2018-05-11T11:07:31.827Z,93392.73
2018-05-11T11:09:58.267Z,93396.66
2018-05-11T11:12:24.674Z,93395.77
2018-05-11T11:14:51.131Z,93387.74
2018-05-11T11:17:17.553Z,93385.97
2018-05-11T11:19:43.937Z,93391.88
2018-05-11T11:22:10.355Z,93381.16
2018-05-11T11:24:36.763Z,93382.49
2018-05-11T11:27:03.135Z,93374.44
2018-05-11T11:29:29.528Z,93372.30
2018-05-11T11:31:55.911Z,93371.50
2018-05-11T11:34:22.386Z,93376.02
2018-05-11T11:36:48.816Z,93377.63
2018-05-11T11:39:15.230Z,93376.39
2018-05-11T11:41:41.658Z,93370.69
2018-05-11T11:44:08.162Z,93373.27
2018-05-11T11:46:34.753Z,93377.12
2018-05-11T11:49:01.344Z,93375.31
2018-05-11T11:51:27.869Z,93372.81
2018-05-11T11:53:54.297Z,93364.14
2018-05-11T11:56:20.755Z,93354.72
2018-05-11T11:58:47.168Z,93357.14
2018-05-11T12:01:13.624Z,93352.61
2018-05-11T12:03:40.027Z,93360.27
2018-05-11T12:06:06.472Z,93357.27
2018-05-11T12:08:33.076Z,93360.73
2018-05-11T12:10:59.453Z,93355.27
2018-05-11T12:13:26.004Z,93355.78
2018-05-11T12:15:59.301Z,93355.91
2018-05-11T12:18:25.848Z,93350.83
2018-05-11T12:20:52.318Z,93347.09
2018-05-11T12:23:18.733Z,93350.55
2018-05-11T12:25:45.156Z,93343.36
2018-05-11T12:28:11.781Z,93352.64
2018-05-11T12:30:38.243Z,93349.98
2018-05-11T12:33:04.632Z,93350.73
2018-05-11T12:35:30.976Z,93340.16
2018-05-11T12:37:57.503Z,93342.72
2018-05-11T12:40:23.882Z,93344.38
2018-05-11T12:42:50.285Z,93344.12
2018-05-11T12:45:16.762Z,93345.72
2018-05-11T12:47:46.973Z,93343.02
2018-05-11T12:50:13.464Z,93335.79
2018-05-11T12:52:39.846Z,93331.08
2018-05-11T12:55:06.231Z,93327.53
2018-05-11T12:57:32.633Z,93335.86
2018-05-11T12:59:59.064Z,93340.25
2018-05-11T13:02:25.580Z,93336.44
2018-05-11T13:04:52.109Z,93340.04
2018-05-11T13:07:18.529Z,93330.16
2018-05-11T13:09:44.981Z,93326.84
2018-05-11T13:12:11.456Z,93326.82
2018-05-11T13:14:37.829Z,93323.92
2018-05-11T13:17:04.402Z,93324.30
2018-05-11T13:19:30.752Z,93322.23
2018-05-11T13:21:57.561Z,93350.65
2018-05-11T13:24:24.138Z,93354.53
2018-05-11T13:26:50.527Z,93366.74
2018-05-11T13:29:16.912Z,93369.77
2018-05-11T13:31:43.331Z,93373.81
2018-05-11T13:34:09.657Z,93383.98
2018-05-11T13:36:36.010Z,93394.61
2018-05-11T13:39:02.597Z,93393.27
2018-05-11T13:41:28.927Z,93397.08
2018-05-11T13:43:55.349Z,93399.04
2018-05-11T13:46:21.757Z,93400.77
2018-05-11T13:48:48.258Z,93408.88
2018-05-11T13:51:14.685Z,93409.30
2018-05-11T13:53:41.159Z,93410.87
2018-05-11T13:56:07.713Z,93411.98
2018-05-11T13:58:34.035Z,93413.80
2018-05-11T14:01:00.526Z,93413.50
2018-05-11T14:03:26.925Z,93416.52
2018-05-11T14:05:53.440Z,93418.92
2018-05-11T14:08:20.078Z,93426.36
2018-05-11T14:10:46.525Z,93433.28
2018-05-11T14:13:12.934Z,93437.23
2018-05-11T14:15:39.431Z,93441.58
2018-05-11T14:18:05.929Z,93444.19
2018-05-11T14:20:32.273Z,93442.14
2018-05-11T14:22:58.778Z,93443.23
2018-05-11T14:25:25.233Z,93449.58
2018-05-11T14:27:51.669Z,93453.47
2018-05-11T14:30:18.107Z,93456.95
2018-05-11T14:32:44.577Z,93453.97
2018-05-11T14:35:10.961Z,93451.17
2018-05-11T14:37:37.617Z,93463.81
2018-05-11T14:40:04.150Z,93476.37
2018-05-11T14:42:30.609Z,93475.41
2018-05-11T14:44:57.047Z,93487.41
2018-05-11T14:47:23.549Z,93491.81
2018-05-11T14:49:50.158Z,93497.47
2018-05-11T14:52:16.844Z,93502.26
2018-05-11T14:54:43.348Z,93496.30
2018-05-11T14:57:09.907Z,93486.56
2018-05-11T14:59:36.361Z,93481.19
2018-05-11T15:02:02.811Z,93484.63
2018-05-11T15:04:29.198Z,93480.47
2018-05-11T15:06:55.724Z,93479.65
2018-05-11T15:09:22.242Z,93477.37
2018-05-11T15:11:48.626Z,93478.49
2018-05-11T15:14:15.167Z,93479.44
2018-05-11T15:16:42.181Z,93476.37
2018-05-11T15:19:09.014Z,93474.58
2018-05-11T15:21:35.601Z,93475.64
2018-05-11T15:24:02.011Z,93476.77
2018-05-11T15:26:28.360Z,93472.78
2018-05-11T15:28:54.798Z,93478.08
2018-05-11T15:31:21.167Z,93482.88
2018-05-11T15:33:47.673Z,93480.09
2018-05-11T15:36:14.510Z,93483.33
2018-05-11T15:38:41.095Z,93482.20
2018-05-11T15:41:08.260Z,93481.72
2018-05-11T15:43:34.868Z,93472.64
2018-05-11T15:46:01.962Z,93469.96
2018-05-11T15:48:28.702Z,93463.77
2018-05-11T15:50:55.531Z,93456.51
2018-05-11T15:53:22.034Z,93452.17
2018-05-11T15:55:49.149Z,93448.42
2018-05-11T15:58:15.599Z,93446.65
2018-05-11T16:00:42.203Z,93455.50
2018-05-11T16:03:09.206Z,93446.45
2018-05-11T16:05:35.802Z,93446.92
2018-05-11T16:08:02.338Z,93449.91
2018-05-11T16:10:28.770Z,93452.55
2018-05-11T16:12:55.282Z,93453.25
2018-05-11T16:15:21.587Z,93462.29
2018-05-11T16:17:48.056Z,93462.61
2018-05-11T16:20:14.496Z,93475.75
2018-05-11T16:22:40.870Z,93478.63
2018-05-11T16:25:07.301Z,93476.98
2018-05-11T16:27:33.877Z,93472.91
2018-05-11T16:30:00.231Z,93473.95
2018-05-11T16:32:26.563Z,93475.25
2018-05-11T16:34:52.972Z,93479.41
2018-05-11T16:37:19.490Z,93474.88
2018-05-11T16:39:45.883Z,93481.09
2018-05-11T16:42:12.378Z,93471.73
2018-05-11T16:44:38.801Z,93480.48
2018-05-11T16:47:05.211Z,93482.77
2018-05-11T16:49:31.686Z,93478.20
2018-05-11T16:51:58.335Z,93473.02
2018-05-11T16:54:24.873Z,93477.35
2018-05-11T16:56:51.687Z,93474.78
2018-05-11T16:59:18.139Z,93470.03
2018-05-11T17:01:44.556Z,93475.66
2018-05-11T17:04:11.058Z,93485.06
2018-05-11T17:06:37.583Z,93489.36
2018-05-11T17:09:04.057Z,93484.84
2018-05-11T17:11:30.522Z,93489.70
2018-05-11T17:13:57.584Z,93487.58
2018-05-11T17:16:24.260Z,93493.10
2018-05-11T17:18:50.731Z,93493.50
2018-05-11T17:21:17.324Z,93490.53
2018-05-11T17:23:43.908Z,93488.14
2018-05-11T17:26:10.364Z,93490.52
2018-05-11T17:28:37.049Z,93493.64
2018-05-11T17:31:03.648Z,93486.47
2018-05-11T17:33:30.742Z,93488.73
2018-05-11T17:35:57.212Z,93491.77
2018-05-11T17:38:24.088Z,93495.97
2018-05-11T17:40:50.719Z,93498.70
2018-05-11T17:43:17.813Z,93500.14
2018-05-11T17:45:44.582Z,93509.33
2018-05-11T17:48:12.014Z,93506.14
2018-05-11T17:50:39.536Z,93510.44
2018-05-11T17:53:07.852Z,93502.06
2018-05-11T17:55:35.102Z,93509.55
2018-05-11T17:58:01.763Z,93504.41
2018-05-11T18:00:28.663Z,93505.73
2018-05-11T18:02:57.233Z,93507.21
2018-05-11T18:05:24.268Z,93500.59
2018-05-11T18:07:54.317Z,93511.60
2018-05-11T18:10:21.573Z,93521.41
2018-05-11T18:12:48.611Z,93515.39
2018-05-11T18:15:15.284Z,93518.27
2018-05-11T18:17:42.776Z,93521.43
2018-05-11T18:20:09.158Z,93522.52
2018-05-11T18:22:35.632Z,93531.84
2018-05-11T18:25:02.247Z,93531.25
2018-05-11T18:27:29.815Z,93538.09
2018-05-11T18:29:56.551Z,93532.11
2018-05-11T18:32:23.386Z,93537.70
2018-05-11T18:34:50.092Z,93539.77
2018-05-11T18:37:20.204Z,93549.62
2018-05-11T18:39:48.036Z,93551.82
2018-05-11T18:42:14.697Z,93549.89
2018-05-11T18:44:41.195Z,93555.86
2018-05-11T18:47:08.050Z,93556.70
2018-05-11T18:49:35.063Z,93556.86
2018-05-11T18:52:02.296Z,93558.83
2018-05-11T18:54:29.532Z,93564.58
2018-05-11T18:56:56.159Z,93561.28
2018-05-11T18:59:23.176Z,93568.63
2018-05-11T19:01:51.171Z,93569.80
2018-05-11T19:07:02.014Z,93576.98
2018-05-11T19:09:35.979Z,93569.87
2018-05-11T19:12:07.648Z,93567.84
2018-05-11T19:14:38.920Z,93577.20
2018-05-11T19:17:09.259Z,93584.37
2018-05-11T19:19:38.292Z,93590.31
2018-05-11T19:22:08.519Z,93581.20
2018-05-11T19:24:36.071Z,93584.41
2018-05-11T19:27:04.536Z,93587.61
2018-05-11T19:29:33.838Z,93595.25
2018-05-11T19:32:02.199Z,93596.39
2018-05-11T19:34:30.755Z,93595.50
2018-05-11T19:37:00.694Z,93599.30
2018-05-11T19:39:28.575Z,93595.17
2018-05-11T19:41:56.098Z,93593.97
2018-05-11T19:44:24.087Z,93586.50
2018-05-11T19:46:51.828Z,93587.06
2018-05-11T19:49:19.537Z,93581.39
2018-05-11T19:51:47.041Z,93588.27
2018-05-11T19:54:15.522Z,93592.17
2018-05-11T19:56:43.120Z,93589.37
2018-05-11T19:59:10.713Z,93590.23
2018-05-11T20:01:38.153Z,93592.77
2018-05-11T20:04:05.776Z,93596.98
2018-05-11T20:06:33.574Z,93599.20
2018-05-11T20:09:00.905Z,93608.62
2018-05-11T20:11:28.591Z,93599.17
2018-05-11T20:16:23.721Z,93593.52
2018-05-11T20:18:50.898Z,93588.12
2018-05-11T20:21:18.140Z,93586.68
2018-05-11T20:23:46.033Z,93586.92
2018-05-11T20:26:13.127Z,93584.70
2018-05-11T20:28:40.465Z,93594.22
2018-05-11T20:31:07.604Z,93590.44
2018-05-11T20:33:36.484Z,93591.30
2018-05-11T20:36:04.030Z,93594.58
2018-05-11T20:38:31.787Z,93593.16
2018-05-11T20:40:59.022Z,93598.83
2018-05-11T20:43:25.566Z,93595.59
2018-05-11T20:45:52.302Z,93601.84
2018-05-11T20:48:19.058Z,93590.36
2018-05-11T20:50:46.038Z,93591.74
2018-05-11T20:53:13.912Z,93593.28
2018-05-11T20:55:41.366Z,93596.05
2018-05-11T20:58:08.110Z,93597.14
2018-05-11T21:00:35.159Z,93594.40
2018-05-11T21:03:02.719Z,93593.66
2018-05-11T21:05:29.741Z,93603.64
2018-05-11T21:07:56.634Z,93603.47
2018-05-11T21:10:23.679Z,93601.92
2018-05-11T21:12:50.941Z,93605.43
2018-05-11T21:15:17.572Z,93598.90
2018-05-11T21:17:44.407Z,93599.46
2018-05-11T21:20:11.082Z,93601.00
2018-05-11T21:22:37.790Z,93600.10
2018-05-11T21:25:04.492Z,93602.46
2018-05-11T21:27:31.251Z,93604.13
2018-05-11T21:29:57.965Z,93605.83
2018-05-11T21:32:24.744Z,93601.67
2018-05-11T21:34:51.479Z,93597.21
2018-05-11T21:37:18.239Z,93599.01
2018-05-11T21:39:45.263Z,93603.78
2018-05-11T21:42:12.040Z,93606.40
2018-05-11T21:44:39.076Z,93612.00
2018-05-11T21:47:06.105Z,93616.33
2018-05-11T21:49:33.303Z,93613.98
2018-05-11T21:52:00.508Z,93613.12
2018-05-11T21:54:36.812Z,93605.28
2018-05-11T21:57:06.994Z,93611.36
2018-05-11T21:59:34.469Z,93616.00
2018-05-11T22:02:01.141Z,93617.11
2018-05-11T22:04:27.816Z,93618.30
2018-05-11T22:06:54.445Z,93623.94
2018-05-11T22:09:21.165Z,93621.70
2018-05-11T22:11:47.569Z,93621.44
2018-05-11T22:14:14.392Z,93621.24
2018-05-11T22:16:41.105Z,93625.30
2018-05-11T22:19:09.049Z,93622.02
2018-05-11T22:21:43.019Z,93620.86
2018-05-11T22:24:13.287Z,93623.73
2018-05-11T22:26:40.441Z,93627.39
2018-05-11T22:29:06.914Z,93631.08
2018-05-11T22:31:33.366Z,93629.72
2018-05-11T22:33:59.756Z,93632.34
2018-05-11T22:36:26.132Z,93624.50
2018-05-11T22:38:55.083Z,93634.73
2018-05-11T22:41:22.072Z,93640.38
2018-05-11T22:43:48.513Z,93627.50
2018-05-11T22:46:15.008Z,93623.04
2018-05-11T22:48:42.236Z,93617.12
2018-05-11T22:51:08.706Z,93619.94
2018-05-11T22:53:35.079Z,93620.72
2018-05-11T22:56:01.496Z,93616.22
2018-05-11T22:58:28.027Z,93608.84
2018-05-11T23:00:54.427Z,93605.15
2018-05-11T23:03:20.765Z,93599.72
2018-05-11T23:05:47.381Z,93606.67
2018-05-11T23:08:13.859Z,93610.08
2018-05-11T23:10:40.216Z,93608.63
2018-05-11T23:13:07.444Z,93607.11
2018-05-11T23:15:33.870Z,93609.56
2018-05-11T23:18:00.784Z,93614.23
2018-05-11T23:20:27.193Z,93607.27
2018-05-11T23:22:53.697Z,93609.17
2018-05-11T23:25:20.088Z,93606.98
2018-05-11T23:27:46.633Z,93610.86
2018-05-11T23:30:12.998Z,93619.72
2018-05-11T23:32:39.397Z,93622.11
2018-05-11T23:35:05.883Z,93614.52
2018-05-11T23:37:32.205Z,93611.86
2018-05-11T23:39:58.673Z,93605.98
2018-05-11T23:42:25.223Z,93605.97
2018-05-11T23:44:51.581Z,93608.00
2018-05-11T23:47:17.944Z,93606.61
2018-05-11T23:49:44.758Z,93608.17
2018-05-11T23:52:11.108Z,93607.55
2018-05-11T23:54:37.929Z,93604.85
2018-05-11T23:57:04.388Z,93608.80
2018-05-11T23:59:30.876Z,93603.06
